sensor_id;sensor_type;location;lat;lon;timestamp;P1;durP1;ratioP1;P2;durP2;ratioP2
20095;SDS011;10207;50.942;6.900;2024-02-28T00:01:05;225.47;;;56.53;;
20095;SDS011;10207;50.942;6.900;2024-02-28T00:03:31;247.80;;;57.77;;
20095;SDS011;10207;50.942;6.900;2024-02-28T00:05:59;228.00;;;58.20;;
20095;SDS011;10207;50.942;6.900;2024-02-28T00:08:25;233.07;;;58.10;;
20095;SDS011;10207;50.942;6.900;2024-02-28T00:10:51;226.77;;;58.40;;
20095;SDS011;10207;50.942;6.900;2024-02-28T00:13:17;253.00;;;60.37;;
20095;SDS011;10207;50.942;6.900;2024-02-28T00:15:43;237.67;;;59.70;;
20095;SDS011;10207;50.942;6.900;2024-02-28T00:18:09;242.53;;;60.57;;
20095;SDS011;10207;50.942;6.900;2024-02-28T00:20:36;247.57;;;60.73;;
20095;SDS011;10207;50.942;6.900;2024-02-28T00:23:02;268.73;;;61.20;;
20095;SDS011;10207;50.942;6.900;2024-02-28T00:25:27;262.20;;;64.90;;
20095;SDS011;10207;50.942;6.900;2024-02-28T00:27:53;267.50;;;64.60;;
20095;SDS011;10207;50.942;6.900;2024-02-28T00:30:19;260.13;;;65.83;;
20095;SDS011;10207;50.942;6.900;2024-02-28T00:32:45;275.27;;;67.10;;
20095;SDS011;10207;50.942;6.900;2024-02-28T00:35:12;268.57;;;69.07;;
20095;SDS011;10207;50.942;6.900;2024-02-28T00:37:38;282.23;;;71.13;;
20095;SDS011;10207;50.942;6.900;2024-02-28T00:40:04;309.25;;;74.90;;
20095;SDS011;10207;50.942;6.900;2024-02-28T00:42:31;291.15;;;71.10;;
20095;SDS011;10207;50.942;6.900;2024-02-28T00:44:56;299.98;;;72.60;;
20095;SDS011;10207;50.942;6.900;2024-02-28T00:47:22;279.83;;;73.07;;
20095;SDS011;10207;50.942;6.900;2024-02-28T00:49:49;283.92;;;72.97;;
20095;SDS011;10207;50.942;6.900;2024-02-28T00:52:15;288.05;;;71.82;;
20095;SDS011;10207;50.942;6.900;2024-02-28T00:54:41;278.77;;;70.70;;
20095;SDS011;10207;50.942;6.900;2024-02-28T00:57:07;284.77;;;70.43;;
20095;SDS011;10207;50.942;6.900;2024-02-28T00:59:33;282.83;;;72.10;;
20095;SDS011;10207;50.942;6.900;2024-02-28T01:01:59;271.50;;;72.97;;
20095;SDS011;10207;50.942;6.900;2024-02-28T01:04:24;252.77;;;67.23;;
20095;SDS011;10207;50.942;6.900;2024-02-28T01:06:50;253.20;;;69.03;;
20095;SDS011;10207;50.942;6.900;2024-02-28T01:09:16;251.30;;;71.03;;
20095;SDS011;10207;50.942;6.900;2024-02-28T01:11:43;241.10;;;68.68;;
20095;SDS011;10207;50.942;6.900;2024-02-28T01:14:09;242.07;;;69.45;;
20095;SDS011;10207;50.942;6.900;2024-02-28T01:16:34;234.35;;;69.03;;
20095;SDS011;10207;50.942;6.900;2024-02-28T01:19:00;228.02;;;66.93;;
20095;SDS011;10207;50.942;6.900;2024-02-28T01:21:26;207.30;;;63.38;;
20095;SDS011;10207;50.942;6.900;2024-02-28T01:23:52;196.50;;;63.00;;
20095;SDS011;10207;50.942;6.900;2024-02-28T01:26:18;184.75;;;60.72;;
20095;SDS011;10207;50.942;6.900;2024-02-28T01:28:47;181.57;;;60.90;;
20095;SDS011;10207;50.942;6.900;2024-02-28T01:31:13;178.45;;;59.17;;
20095;SDS011;10207;50.942;6.900;2024-02-28T01:33:39;178.85;;;57.00;;
20095;SDS011;10207;50.942;6.900;2024-02-28T01:36:06;178.15;;;58.78;;
20095;SDS011;10207;50.942;6.900;2024-02-28T01:38:32;170.98;;;56.00;;
20095;SDS011;10207;50.942;6.900;2024-02-28T01:40:58;157.20;;;55.37;;
20095;SDS011;10207;50.942;6.900;2024-02-28T01:43:24;172.32;;;55.13;;
20095;SDS011;10207;50.942;6.900;2024-02-28T01:45:50;147.20;;;53.53;;
20095;SDS011;10207;50.942;6.900;2024-02-28T01:48:17;142.25;;;53.00;;
20095;SDS011;10207;50.942;6.900;2024-02-28T01:50:43;149.52;;;53.92;;
20095;SDS011;10207;50.942;6.900;2024-02-28T01:53:09;149.90;;;53.65;;
20095;SDS011;10207;50.942;6.900;2024-02-28T01:55:37;155.73;;;53.60;;
20095;SDS011;10207;50.942;6.900;2024-02-28T01:58:03;156.95;;;54.92;;
20095;SDS011;10207;50.942;6.900;2024-02-28T02:00:34;158.68;;;54.72;;
20095;SDS011;10207;50.942;6.900;2024-02-28T02:03:03;163.07;;;55.53;;
20095;SDS011;10207;50.942;6.900;2024-02-28T02:05:29;156.15;;;54.78;;
20095;SDS011;10207;50.942;6.900;2024-02-28T02:07:57;156.05;;;52.72;;
20095;SDS011;10207;50.942;6.900;2024-02-28T02:10:23;151.68;;;52.28;;
20095;SDS011;10207;50.942;6.900;2024-02-28T02:12:49;145.35;;;51.28;;
20095;SDS011;10207;50.942;6.900;2024-02-28T02:15:15;150.15;;;49.85;;
20095;SDS011;10207;50.942;6.900;2024-02-28T02:17:41;135.80;;;50.15;;
20095;SDS011;10207;50.942;6.900;2024-02-28T02:20:07;128.00;;;48.28;;
20095;SDS011;10207;50.942;6.900;2024-02-28T02:22:36;114.22;;;47.55;;
20095;SDS011;10207;50.942;6.900;2024-02-28T02:25:04;116.57;;;48.10;;
20095;SDS011;10207;50.942;6.900;2024-02-28T02:27:30;115.68;;;46.70;;
20095;SDS011;10207;50.942;6.900;2024-02-28T02:29:56;114.05;;;47.60;;
20095;SDS011;10207;50.942;6.900;2024-02-28T02:32:23;114.35;;;47.85;;
20095;SDS011;10207;50.942;6.900;2024-02-28T02:34:48;120.65;;;49.22;;
20095;SDS011;10207;50.942;6.900;2024-02-28T02:37:15;110.57;;;48.40;;
20095;SDS011;10207;50.942;6.900;2024-02-28T02:39:41;101.90;;;45.85;;
20095;SDS011;10207;50.942;6.900;2024-02-28T02:42:07;104.43;;;47.05;;
20095;SDS011;10207;50.942;6.900;2024-02-28T02:44:34;112.35;;;49.05;;
20095;SDS011;10207;50.942;6.900;2024-02-28T02:47:00;97.07;;;45.92;;
20095;SDS011;10207;50.942;6.900;2024-02-28T02:49:26;101.95;;;46.22;;
20095;SDS011;10207;50.942;6.900;2024-02-28T02:51:52;109.03;;;48.05;;
20095;SDS011;10207;50.942;6.900;2024-02-28T02:54:19;108.35;;;46.58;;
20095;SDS011;10207;50.942;6.900;2024-02-28T02:56:45;107.95;;;49.70;;
20095;SDS011;10207;50.942;6.900;2024-02-28T02:59:11;103.65;;;46.30;;
20095;SDS011;10207;50.942;6.900;2024-02-28T03:01:40;108.15;;;48.17;;
20095;SDS011;10207;50.942;6.900;2024-02-28T03:04:06;106.13;;;47.63;;
20095;SDS011;10207;50.942;6.900;2024-02-28T03:06:32;105.38;;;47.83;;
20095;SDS011;10207;50.942;6.900;2024-02-28T03:08:58;112.00;;;49.05;;
20095;SDS011;10207;50.942;6.900;2024-02-28T03:11:24;110.78;;;49.08;;
20095;SDS011;10207;50.942;6.900;2024-02-28T03:13:50;112.30;;;47.35;;
20095;SDS011;10207;50.942;6.900;2024-02-28T03:16:16;104.82;;;48.13;;
20095;SDS011;10207;50.942;6.900;2024-02-28T03:18:43;105.05;;;48.45;;
20095;SDS011;10207;50.942;6.900;2024-02-28T03:21:08;112.95;;;49.15;;
20095;SDS011;10207;50.942;6.900;2024-02-28T03:23:34;107.07;;;47.40;;
20095;SDS011;10207;50.942;6.900;2024-02-28T03:26:01;101.97;;;48.22;;
20095;SDS011;10207;50.942;6.900;2024-02-28T03:28:29;104.38;;;44.97;;
20095;SDS011;10207;50.942;6.900;2024-02-28T03:30:55;103.35;;;45.95;;
20095;SDS011;10207;50.942;6.900;2024-02-28T03:33:20;105.30;;;47.47;;
20095;SDS011;10207;50.942;6.900;2024-02-28T03:35:48;100.55;;;44.33;;
20095;SDS011;10207;50.942;6.900;2024-02-28T03:38:14;102.57;;;44.53;;
20095;SDS011;10207;50.942;6.900;2024-02-28T03:40:40;102.60;;;46.47;;
20095;SDS011;10207;50.942;6.900;2024-02-28T03:43:05;108.90;;;46.97;;
20095;SDS011;10207;50.942;6.900;2024-02-28T03:45:37;100.22;;;45.42;;
20095;SDS011;10207;50.942;6.900;2024-02-28T03:48:04;95.47;;;44.25;;
20095;SDS011;10207;50.942;6.900;2024-02-28T03:50:30;104.90;;;47.55;;
20095;SDS011;10207;50.942;6.900;2024-02-28T03:52:56;94.93;;;45.13;;
20095;SDS011;10207;50.942;6.900;2024-02-28T03:55:22;101.32;;;45.05;;
20095;SDS011;10207;50.942;6.900;2024-02-28T03:57:48;100.97;;;47.80;;
20095;SDS011;10207;50.942;6.900;2024-02-28T04:00:17;108.38;;;47.17;;
20095;SDS011;10207;50.942;6.900;2024-02-28T04:02:43;98.85;;;47.20;;
20095;SDS011;10207;50.942;6.900;2024-02-28T04:05:09;103.43;;;46.92;;
20095;SDS011;10207;50.942;6.900;2024-02-28T04:07:36;103.43;;;47.45;;
20095;SDS011;10207;50.942;6.900;2024-02-28T04:10:02;93.55;;;46.30;;
20095;SDS011;10207;50.942;6.900;2024-02-28T04:12:30;99.15;;;45.03;;
20095;SDS011;10207;50.942;6.900;2024-02-28T04:14:56;101.07;;;44.97;;
20095;SDS011;10207;50.942;6.900;2024-02-28T04:17:23;100.45;;;46.03;;
20095;SDS011;10207;50.942;6.900;2024-02-28T04:19:49;98.60;;;45.20;;
20095;SDS011;10207;50.942;6.900;2024-02-28T04:22:15;100.43;;;46.53;;
20095;SDS011;10207;50.942;6.900;2024-02-28T04:24:41;96.57;;;43.97;;
20095;SDS011;10207;50.942;6.900;2024-02-28T04:27:07;101.05;;;45.83;;
20095;SDS011;10207;50.942;6.900;2024-02-28T04:29:36;100.30;;;44.15;;
20095;SDS011;10207;50.942;6.900;2024-02-28T04:32:02;102.07;;;45.75;;
20095;SDS011;10207;50.942;6.900;2024-02-28T04:34:28;105.57;;;45.80;;
20095;SDS011;10207;50.942;6.900;2024-02-28T04:36:54;105.78;;;45.60;;
20095;SDS011;10207;50.942;6.900;2024-02-28T04:39:20;98.18;;;45.08;;
20095;SDS011;10207;50.942;6.900;2024-02-28T04:41:46;99.78;;;45.50;;
20095;SDS011;10207;50.942;6.900;2024-02-28T04:44:12;100.38;;;45.85;;
20095;SDS011;10207;50.942;6.900;2024-02-28T04:46:38;100.22;;;41.97;;
20095;SDS011;10207;50.942;6.900;2024-02-28T04:49:05;89.53;;;42.22;;
20095;SDS011;10207;50.942;6.900;2024-02-28T04:51:31;92.43;;;41.70;;
20095;SDS011;10207;50.942;6.900;2024-02-28T04:53:57;97.40;;;43.80;;
20095;SDS011;10207;50.942;6.900;2024-02-28T04:56:23;102.10;;;46.67;;
20095;SDS011;10207;50.942;6.900;2024-02-28T04:58:49;102.80;;;45.20;;
20095;SDS011;10207;50.942;6.900;2024-02-28T05:01:15;99.68;;;45.10;;
20095;SDS011;10207;50.942;6.900;2024-02-28T05:03:41;99.03;;;44.67;;
20095;SDS011;10207;50.942;6.900;2024-02-28T05:06:07;107.72;;;47.20;;
20095;SDS011;10207;50.942;6.900;2024-02-28T05:08:34;113.63;;;47.17;;
20095;SDS011;10207;50.942;6.900;2024-02-28T05:11:02;108.60;;;45.78;;
20095;SDS011;10207;50.942;6.900;2024-02-28T05:13:28;104.32;;;46.00;;
20095;SDS011;10207;50.942;6.900;2024-02-28T05:15:54;102.70;;;45.65;;
20095;SDS011;10207;50.942;6.900;2024-02-28T05:18:21;102.07;;;44.92;;
20095;SDS011;10207;50.942;6.900;2024-02-28T05:20:47;99.55;;;43.60;;
20095;SDS011;10207;50.942;6.900;2024-02-28T05:23:13;95.75;;;43.80;;
20095;SDS011;10207;50.942;6.900;2024-02-28T05:25:39;99.82;;;45.25;;
20095;SDS011;10207;50.942;6.900;2024-02-28T05:28:05;96.85;;;45.13;;
20095;SDS011;10207;50.942;6.900;2024-02-28T05:30:31;96.43;;;44.15;;
20095;SDS011;10207;50.942;6.900;2024-02-28T05:32:57;100.13;;;45.13;;
20095;SDS011;10207;50.942;6.900;2024-02-28T05:35:23;91.97;;;42.00;;
20095;SDS011;10207;50.942;6.900;2024-02-28T05:37:52;102.13;;;46.13;;
20095;SDS011;10207;50.942;6.900;2024-02-28T05:40:19;101.20;;;45.40;;
20095;SDS011;10207;50.942;6.900;2024-02-28T05:42:45;100.80;;;46.47;;
20095;SDS011;10207;50.942;6.900;2024-02-28T05:45:11;96.75;;;45.25;;
20095;SDS011;10207;50.942;6.900;2024-02-28T05:47:38;103.72;;;45.58;;
20095;SDS011;10207;50.942;6.900;2024-02-28T05:50:04;103.35;;;46.10;;
20095;SDS011;10207;50.942;6.900;2024-02-28T05:52:30;102.70;;;45.58;;
20095;SDS011;10207;50.942;6.900;2024-02-28T05:54:56;107.38;;;44.95;;
20095;SDS011;10207;50.942;6.900;2024-02-28T05:57:22;95.15;;;40.83;;
20095;SDS011;10207;50.942;6.900;2024-02-28T05:59:49;104.13;;;43.00;;
20095;SDS011;10207;50.942;6.900;2024-02-28T06:02:15;102.50;;;43.78;;
20095;SDS011;10207;50.942;6.900;2024-02-28T06:04:41;100.18;;;43.17;;
20095;SDS011;10207;50.942;6.900;2024-02-28T06:07:07;99.63;;;44.70;;
20095;SDS011;10207;50.942;6.900;2024-02-28T06:09:33;97.35;;;42.08;;
20095;SDS011;10207;50.942;6.900;2024-02-28T06:11:59;102.43;;;40.90;;
20095;SDS011;10207;50.942;6.900;2024-02-28T06:14:27;103.75;;;43.08;;
20095;SDS011;10207;50.942;6.900;2024-02-28T06:16:53;100.68;;;43.47;;
20095;SDS011;10207;50.942;6.900;2024-02-28T06:19:19;103.38;;;42.67;;
20095;SDS011;10207;50.942;6.900;2024-02-28T06:21:45;95.18;;;41.90;;
20095;SDS011;10207;50.942;6.900;2024-02-28T06:24:12;97.97;;;42.63;;
20095;SDS011;10207;50.942;6.900;2024-02-28T06:26:37;101.53;;;43.25;;
20095;SDS011;10207;50.942;6.900;2024-02-28T06:29:03;96.43;;;41.95;;
20095;SDS011;10207;50.942;6.900;2024-02-28T06:31:31;99.07;;;42.80;;
20095;SDS011;10207;50.942;6.900;2024-02-28T06:33:58;94.30;;;41.53;;
20095;SDS011;10207;50.942;6.900;2024-02-28T06:36:24;96.88;;;41.80;;
20095;SDS011;10207;50.942;6.900;2024-02-28T06:38:50;97.10;;;41.38;;
20095;SDS011;10207;50.942;6.900;2024-02-28T06:41:16;92.00;;;41.90;;
20095;SDS011;10207;50.942;6.900;2024-02-28T06:43:42;96.53;;;41.60;;
20095;SDS011;10207;50.942;6.900;2024-02-28T06:46:08;95.53;;;42.22;;
20095;SDS011;10207;50.942;6.900;2024-02-28T06:48:35;91.80;;;42.47;;
20095;SDS011;10207;50.942;6.900;2024-02-28T06:51:01;87.13;;;39.45;;
20095;SDS011;10207;50.942;6.900;2024-02-28T06:53:27;90.63;;;40.35;;
20095;SDS011;10207;50.942;6.900;2024-02-28T06:55:53;85.80;;;39.40;;
20095;SDS011;10207;50.942;6.900;2024-02-28T06:58:19;86.70;;;38.85;;
20095;SDS011;10207;50.942;6.900;2024-02-28T07:00:45;97.30;;;42.50;;
20095;SDS011;10207;50.942;6.900;2024-02-28T07:03:11;88.45;;;40.88;;
20095;SDS011;10207;50.942;6.900;2024-02-28T07:05:37;96.40;;;43.97;;
20095;SDS011;10207;50.942;6.900;2024-02-28T07:08:04;92.55;;;40.97;;
20095;SDS011;10207;50.942;6.900;2024-02-28T07:10:30;89.05;;;40.58;;
20095;SDS011;10207;50.942;6.900;2024-02-28T07:12:55;96.60;;;42.47;;
20095;SDS011;10207;50.942;6.900;2024-02-28T07:15:22;89.97;;;39.97;;
20095;SDS011;10207;50.942;6.900;2024-02-28T07:17:48;91.25;;;41.28;;
20095;SDS011;10207;50.942;6.900;2024-02-28T07:20:14;88.75;;;38.42;;
20095;SDS011;10207;50.942;6.900;2024-02-28T07:22:41;86.85;;;40.80;;
20095;SDS011;10207;50.942;6.900;2024-02-28T07:25:08;82.20;;;39.03;;
20095;SDS011;10207;50.942;6.900;2024-02-28T07:27:34;88.63;;;40.95;;
20095;SDS011;10207;50.942;6.900;2024-02-28T07:30:01;85.47;;;39.78;;
20095;SDS011;10207;50.942;6.900;2024-02-28T07:32:27;84.82;;;41.15;;
20095;SDS011;10207;50.942;6.900;2024-02-28T07:34:53;87.32;;;40.67;;
20095;SDS011;10207;50.942;6.900;2024-02-28T07:37:19;81.63;;;38.80;;
20095;SDS011;10207;50.942;6.900;2024-02-28T07:39:45;79.38;;;39.20;;
20095;SDS011;10207;50.942;6.900;2024-02-28T07:42:11;79.63;;;38.53;;
20095;SDS011;10207;50.942;6.900;2024-02-28T07:44:37;83.22;;;39.88;;
20095;SDS011;10207;50.942;6.900;2024-02-28T07:47:05;88.60;;;42.90;;
20095;SDS011;10207;50.942;6.900;2024-02-28T07:49:31;86.55;;;41.95;;
20095;SDS011;10207;50.942;6.900;2024-02-28T07:51:57;86.65;;;40.38;;
20095;SDS011;10207;50.942;6.900;2024-02-28T07:54:23;84.15;;;39.53;;
20095;SDS011;10207;50.942;6.900;2024-02-28T07:56:50;88.63;;;40.28;;
20095;SDS011;10207;50.942;6.900;2024-02-28T07:59:16;82.40;;;38.15;;
20095;SDS011;10207;50.942;6.900;2024-02-28T08:01:42;85.53;;;39.33;;
20095;SDS011;10207;50.942;6.900;2024-02-28T08:04:08;88.25;;;43.28;;
20095;SDS011;10207;50.942;6.900;2024-02-28T08:06:34;90.55;;;41.83;;
20095;SDS011;10207;50.942;6.900;2024-02-28T08:09:00;91.53;;;40.45;;
20095;SDS011;10207;50.942;6.900;2024-02-28T08:11:26;88.63;;;40.92;;
20095;SDS011;10207;50.942;6.900;2024-02-28T08:13:51;82.53;;;39.17;;
20095;SDS011;10207;50.942;6.900;2024-02-28T08:16:18;77.95;;;38.42;;
20095;SDS011;10207;50.942;6.900;2024-02-28T08:18:44;78.18;;;36.08;;
20095;SDS011;10207;50.942;6.900;2024-02-28T08:21:10;71.22;;;34.63;;
20095;SDS011;10207;50.942;6.900;2024-02-28T08:23:36;73.07;;;35.38;;
20095;SDS011;10207;50.942;6.900;2024-02-28T08:26:02;75.65;;;36.63;;
20095;SDS011;10207;50.942;6.900;2024-02-28T08:28:29;70.82;;;35.83;;
20095;SDS011;10207;50.942;6.900;2024-02-28T08:30:55;65.85;;;36.92;;
20095;SDS011;10207;50.942;6.900;2024-02-28T08:33:21;65.22;;;36.05;;
20095;SDS011;10207;50.942;6.900;2024-02-28T08:35:47;65.45;;;35.38;;
20095;SDS011;10207;50.942;6.900;2024-02-28T08:38:16;60.63;;;34.72;;
20095;SDS011;10207;50.942;6.900;2024-02-28T08:40:42;72.35;;;36.58;;
20095;SDS011;10207;50.942;6.900;2024-02-28T08:43:08;68.78;;;36.28;;
20095;SDS011;10207;50.942;6.900;2024-02-28T08:45:34;73.63;;;37.13;;
20095;SDS011;10207;50.942;6.900;2024-02-28T08:48:00;65.75;;;36.13;;
20095;SDS011;10207;50.942;6.900;2024-02-28T08:50:29;71.25;;;37.08;;
20095;SDS011;10207;50.942;6.900;2024-02-28T08:52:55;71.43;;;37.67;;
20095;SDS011;10207;50.942;6.900;2024-02-28T08:55:21;74.93;;;36.75;;
20095;SDS011;10207;50.942;6.900;2024-02-28T08:57:48;73.82;;;38.10;;
20095;SDS011;10207;50.942;6.900;2024-02-28T09:00:15;70.25;;;37.03;;
20095;SDS011;10207;50.942;6.900;2024-02-28T09:02:41;69.38;;;34.03;;
20095;SDS011;10207;50.942;6.900;2024-02-28T09:05:07;75.65;;;37.90;;
20095;SDS011;10207;50.942;6.900;2024-02-28T09:07:34;67.90;;;36.58;;
20095;SDS011;10207;50.942;6.900;2024-02-28T09:10:03;71.10;;;37.20;;
20095;SDS011;10207;50.942;6.900;2024-02-28T09:12:29;72.15;;;37.53;;
20095;SDS011;10207;50.942;6.900;2024-02-28T09:14:55;67.13;;;33.28;;
20095;SDS011;10207;50.942;6.900;2024-02-28T09:17:23;67.43;;;37.15;;
20095;SDS011;10207;50.942;6.900;2024-02-28T09:19:49;66.03;;;37.70;;
20095;SDS011;10207;50.942;6.900;2024-02-28T09:22:15;76.03;;;40.72;;
20095;SDS011;10207;50.942;6.900;2024-02-28T09:24:43;71.03;;;36.70;;
20095;SDS011;10207;50.942;6.900;2024-02-28T09:27:09;72.07;;;37.80;;
20095;SDS011;10207;50.942;6.900;2024-02-28T09:29:35;66.07;;;35.95;;
20095;SDS011;10207;50.942;6.900;2024-02-28T09:32:01;68.47;;;37.72;;
20095;SDS011;10207;50.942;6.900;2024-02-28T09:34:27;72.18;;;40.05;;
20095;SDS011;10207;50.942;6.900;2024-02-28T09:36:53;63.90;;;34.58;;
20095;SDS011;10207;50.942;6.900;2024-02-28T09:39:19;64.68;;;35.95;;
20095;SDS011;10207;50.942;6.900;2024-02-28T09:41:47;65.20;;;37.15;;
20095;SDS011;10207;50.942;6.900;2024-02-28T09:44:15;65.25;;;36.42;;
20095;SDS011;10207;50.942;6.900;2024-02-28T09:46:41;64.78;;;37.20;;
20095;SDS011;10207;50.942;6.900;2024-02-28T09:49:08;70.32;;;37.17;;
20095;SDS011;10207;50.942;6.900;2024-02-28T09:51:35;59.20;;;32.97;;
20095;SDS011;10207;50.942;6.900;2024-02-28T09:54:02;58.65;;;35.17;;
20095;SDS011;10207;50.942;6.900;2024-02-28T09:56:29;57.05;;;34.55;;
20095;SDS011;10207;50.942;6.900;2024-02-28T09:58:55;56.00;;;33.95;;
20095;SDS011;10207;50.942;6.900;2024-02-28T10:01:21;60.38;;;36.00;;
20095;SDS011;10207;50.942;6.900;2024-02-28T10:03:51;53.05;;;34.28;;
20095;SDS011;10207;50.942;6.900;2024-02-28T10:06:22;53.15;;;34.72;;
20095;SDS011;10207;50.942;6.900;2024-02-28T10:08:48;54.88;;;34.67;;
20095;SDS011;10207;50.942;6.900;2024-02-28T10:11:23;55.60;;;35.08;;
20095;SDS011;10207;50.942;6.900;2024-02-28T10:13:50;53.72;;;34.38;;
20095;SDS011;10207;50.942;6.900;2024-02-28T10:16:16;54.33;;;33.58;;
20095;SDS011;10207;50.942;6.900;2024-02-28T10:18:42;47.80;;;29.45;;
20095;SDS011;10207;50.942;6.900;2024-02-28T10:21:09;53.13;;;30.08;;
20095;SDS011;10207;50.942;6.900;2024-02-28T10:23:36;50.63;;;29.67;;
20095;SDS011;10207;50.942;6.900;2024-02-28T10:26:02;48.05;;;28.85;;
20095;SDS011;10207;50.942;6.900;2024-02-28T10:28:29;49.20;;;31.13;;
20095;SDS011;10207;50.942;6.900;2024-02-28T10:30:55;53.03;;;32.95;;
20095;SDS011;10207;50.942;6.900;2024-02-28T10:33:21;51.65;;;32.60;;
20095;SDS011;10207;50.942;6.900;2024-02-28T10:35:50;47.78;;;30.30;;
20095;SDS011;10207;50.942;6.900;2024-02-28T10:38:17;55.65;;;33.00;;
20095;SDS011;10207;50.942;6.900;2024-02-28T10:40:44;54.53;;;34.60;;
20095;SDS011;10207;50.942;6.900;2024-02-28T10:43:10;58.90;;;36.00;;
20095;SDS011;10207;50.942;6.900;2024-02-28T10:45:37;54.28;;;32.53;;
20095;SDS011;10207;50.942;6.900;2024-02-28T10:48:06;58.78;;;36.22;;
20095;SDS011;10207;50.942;6.900;2024-02-28T10:50:33;53.50;;;33.03;;
20095;SDS011;10207;50.942;6.900;2024-02-28T10:53:02;51.72;;;32.58;;
20095;SDS011;10207;50.942;6.900;2024-02-28T10:55:33;53.85;;;33.50;;
20095;SDS011;10207;50.942;6.900;2024-02-28T10:58:06;56.00;;;32.45;;
20095;SDS011;10207;50.942;6.900;2024-02-28T11:00:34;54.55;;;35.80;;
20095;SDS011;10207;50.942;6.900;2024-02-28T11:03:01;55.83;;;31.88;;
20095;SDS011;10207;50.942;6.900;2024-02-28T11:05:40;53.15;;;31.38;;
20095;SDS011;10207;50.942;6.900;2024-02-28T11:08:22;51.60;;;30.52;;
20095;SDS011;10207;50.942;6.900;2024-02-28T11:10:58;51.63;;;31.13;;
20095;SDS011;10207;50.942;6.900;2024-02-28T11:13:25;50.85;;;32.40;;
20095;SDS011;10207;50.942;6.900;2024-02-28T11:15:51;53.67;;;29.70;;
20095;SDS011;10207;50.942;6.900;2024-02-28T11:18:18;55.42;;;33.97;;
20095;SDS011;10207;50.942;6.900;2024-02-28T11:20:44;50.38;;;31.20;;
20095;SDS011;10207;50.942;6.900;2024-02-28T11:23:13;53.58;;;33.72;;
20095;SDS011;10207;50.942;6.900;2024-02-28T11:25:40;50.25;;;29.30;;
20095;SDS011;10207;50.942;6.900;2024-02-28T11:28:07;51.40;;;33.67;;
20095;SDS011;10207;50.942;6.900;2024-02-28T11:30:33;52.50;;;32.13;;
20095;SDS011;10207;50.942;6.900;2024-02-28T11:32:59;45.42;;;28.90;;
20095;SDS011;10207;50.942;6.900;2024-02-28T11:35:28;45.63;;;29.70;;
20095;SDS011;10207;50.942;6.900;2024-02-28T11:37:55;45.13;;;30.40;;
20095;SDS011;10207;50.942;6.900;2024-02-28T11:40:24;47.25;;;30.45;;
20095;SDS011;10207;50.942;6.900;2024-02-28T11:42:54;53.08;;;31.45;;
20095;SDS011;10207;50.942;6.900;2024-02-28T11:45:20;48.20;;;29.73;;
20095;SDS011;10207;50.942;6.900;2024-02-28T11:47:47;49.10;;;30.42;;
20095;SDS011;10207;50.942;6.900;2024-02-28T11:50:16;47.22;;;29.83;;
20095;SDS011;10207;50.942;6.900;2024-02-28T11:52:44;49.22;;;31.65;;
20095;SDS011;10207;50.942;6.900;2024-02-28T11:55:11;48.25;;;31.10;;
20095;SDS011;10207;50.942;6.900;2024-02-28T11:57:37;42.58;;;28.48;;
20095;SDS011;10207;50.942;6.900;2024-02-28T12:00:04;45.90;;;28.80;;
20095;SDS011;10207;50.942;6.900;2024-02-28T12:02:33;48.40;;;28.83;;
20095;SDS011;10207;50.942;6.900;2024-02-28T12:05:00;46.60;;;28.73;;
20095;SDS011;10207;50.942;6.900;2024-02-28T12:07:26;44.22;;;29.52;;
20095;SDS011;10207;50.942;6.900;2024-02-28T12:09:53;45.55;;;26.98;;
20095;SDS011;10207;50.942;6.900;2024-02-28T12:12:21;46.40;;;30.73;;
20095;SDS011;10207;50.942;6.900;2024-02-28T12:14:47;41.72;;;28.73;;
20095;SDS011;10207;50.942;6.900;2024-02-28T12:17:14;45.20;;;27.25;;
20095;SDS011;10207;50.942;6.900;2024-02-28T12:19:40;39.55;;;26.80;;
20095;SDS011;10207;50.942;6.900;2024-02-28T12:22:06;41.15;;;28.40;;
20095;SDS011;10207;50.942;6.900;2024-02-28T12:24:33;40.38;;;27.75;;
20095;SDS011;10207;50.942;6.900;2024-02-28T12:26:59;37.33;;;26.00;;
20095;SDS011;10207;50.942;6.900;2024-02-28T12:29:25;40.00;;;28.33;;
20095;SDS011;10207;50.942;6.900;2024-02-28T12:31:51;39.72;;;26.70;;
20095;SDS011;10207;50.942;6.900;2024-02-28T12:34:17;39.65;;;26.63;;
20095;SDS011;10207;50.942;6.900;2024-02-28T12:36:44;38.53;;;26.13;;
20095;SDS011;10207;50.942;6.900;2024-02-28T12:39:10;39.47;;;26.27;;
20095;SDS011;10207;50.942;6.900;2024-02-28T12:41:38;37.60;;;26.00;;
20095;SDS011;10207;50.942;6.900;2024-02-28T12:44:05;36.45;;;23.95;;
20095;SDS011;10207;50.942;6.900;2024-02-28T12:46:35;39.72;;;25.58;;
20095;SDS011;10207;50.942;6.900;2024-02-28T12:49:01;41.83;;;26.00;;
20095;SDS011;10207;50.942;6.900;2024-02-28T12:51:40;36.83;;;25.92;;
20095;SDS011;10207;50.942;6.900;2024-02-28T12:54:09;35.95;;;26.63;;
20095;SDS011;10207;50.942;6.900;2024-02-28T12:56:37;34.25;;;25.20;;
20095;SDS011;10207;50.942;6.900;2024-02-28T12:59:03;34.83;;;25.35;;
20095;SDS011;10207;50.942;6.900;2024-02-28T13:01:29;35.50;;;25.05;;
20095;SDS011;10207;50.942;6.900;2024-02-28T13:03:56;35.92;;;23.65;;
20095;SDS011;10207;50.942;6.900;2024-02-28T13:06:22;34.75;;;23.65;;
20095;SDS011;10207;50.942;6.900;2024-02-28T13:08:48;37.42;;;25.45;;
20095;SDS011;10207;50.942;6.900;2024-02-28T13:11:21;36.03;;;25.00;;
20095;SDS011;10207;50.942;6.900;2024-02-28T13:13:47;35.53;;;23.25;;
20095;SDS011;10207;50.942;6.900;2024-02-28T13:16:13;34.03;;;24.00;;
20095;SDS011;10207;50.942;6.900;2024-02-28T13:18:39;31.50;;;22.67;;
20095;SDS011;10207;50.942;6.900;2024-02-28T13:21:06;30.98;;;23.45;;
20095;SDS011;10207;50.942;6.900;2024-02-28T13:23:32;28.92;;;21.02;;
20095;SDS011;10207;50.942;6.900;2024-02-28T13:25:57;32.20;;;21.85;;
20095;SDS011;10207;50.942;6.900;2024-02-28T13:28:23;28.92;;;20.63;;
20095;SDS011;10207;50.942;6.900;2024-02-28T13:30:58;34.22;;;23.80;;
20095;SDS011;10207;50.942;6.900;2024-02-28T13:33:24;32.22;;;21.77;;
20095;SDS011;10207;50.942;6.900;2024-02-28T13:35:50;33.13;;;20.20;;
20095;SDS011;10207;50.942;6.900;2024-02-28T13:38:16;32.70;;;21.95;;
20095;SDS011;10207;50.942;6.900;2024-02-28T13:40:42;34.58;;;22.23;;
20095;SDS011;10207;50.942;6.900;2024-02-28T13:43:10;34.65;;;21.70;;
20095;SDS011;10207;50.942;6.900;2024-02-28T13:45:37;31.88;;;21.13;;
20095;SDS011;10207;50.942;6.900;2024-02-28T13:48:04;33.75;;;22.20;;
20095;SDS011;10207;50.942;6.900;2024-02-28T13:50:31;35.60;;;22.70;;
20095;SDS011;10207;50.942;6.900;2024-02-28T13:52:57;30.52;;;21.30;;
20095;SDS011;10207;50.942;6.900;2024-02-28T13:55:24;34.13;;;20.38;;
20095;SDS011;10207;50.942;6.900;2024-02-28T13:57:50;31.02;;;19.75;;
20095;SDS011;10207;50.942;6.900;2024-02-28T14:00:16;31.90;;;19.63;;
20095;SDS011;10207;50.942;6.900;2024-02-28T14:02:43;33.85;;;21.95;;
20095;SDS011;10207;50.942;6.900;2024-02-28T14:05:08;34.45;;;21.88;;
20095;SDS011;10207;50.942;6.900;2024-02-28T14:07:35;33.17;;;21.38;;
20095;SDS011;10207;50.942;6.900;2024-02-28T14:10:03;27.50;;;18.05;;
20095;SDS011;10207;50.942;6.900;2024-02-28T14:12:29;27.17;;;17.55;;